Stoke Poges, United Kingdom
Current Conditions -  °F | °C
As of 12:20 PM on Monday 20 Oct 2014 (Local Time) from EGLL Reporting Station
Scattered Clouds Scattered Clouds  
Wind Chill: 63°   Ceiling: Unl
Heat Index: 63°   Visibility: 6mi
Dew Point: 50°   Wind: 16mph
Humidity: 63%   Direction: 250°WSW
Pressure: 30.03"   Gusts: NA
Location:  51.54°N, 0.59°W
Report Text: EGLL 201120Z 25014KT 9999 FEW029 SCT037 17/10 Q1017 NOSIG
Loading
Personal Weather Stations






























Interactive Weather Map
Tropical Storm Tracking
New forecast layout! Learn more

10-Day Weather Forecast

Advertisements
Track Severe Weather on mobile